Terminal Aerodrome Forecast
Issued by NWS Twin Cities, MN

Home | Current Version | Previous Version | Graphics & Text | Print | Product List | Glossary On
Versions: 1 2 3 4 5 6 7 8 9 10 11 12 13 14 15 16 17 18 19 20 21 22 23 24 25 26 27
000
FTUS43 KMPX 192338
TAFMSP
TAF
KMSP 192338Z 2000/2106 02006KT P6SM BKN250
     FM200200 03003KT P6SM BKN200
     FM201500 30005KT P6SM OVC150
     FM201800 29008KT P6SM SCT050 BKN120
     FM210100 27004KT P6SM SCT150=

USA.gov is the U.S. government's official web portal to all federal, state and local government web resources and services.